sensor_id;sensor_type;location;lat;lon;timestamp;pressure;altitude;pressure_sealevel;temperature;humidity
20368;BME280;10343;52.402;9.796;2023-03-26T00:02:02;99817.06;;;17.70;47.28
20368;BME280;10343;52.402;9.796;2023-03-26T00:04:30;99824.81;;;16.91;48.21
20368;BME280;10343;52.402;9.796;2023-03-26T00:07:00;99820.53;;;17.85;47.13
20368;BME280;10343;52.402;9.796;2023-03-26T00:09:28;99820.06;;;17.65;47.72
20368;BME280;10343;52.402;9.796;2023-03-26T00:11:57;99827.75;;;17.57;47.54
20368;BME280;10343;52.402;9.796;2023-03-26T00:14:25;99824.50;;;18.19;45.92
20368;BME280;10343;52.402;9.796;2023-03-26T00:16:54;99823.59;;;17.93;46.71
20368;BME280;10343;52.402;9.796;2023-03-26T00:19:23;99829.47;;;17.58;47.26
20368;BME280;10343;52.402;9.796;2023-03-26T00:21:53;99829.00;;;18.19;45.38
20368;BME280;10343;52.402;9.796;2023-03-26T00:24:23;99835.31;;;17.77;46.33
20368;BME280;10343;52.402;9.796;2023-03-26T00:26:55;99836.34;;;17.62;47.07
20368;BME280;10343;52.402;9.796;2023-03-26T00:29:24;99840.13;;;18.12;45.89
20368;BME280;10343;52.402;9.796;2023-03-26T00:31:53;99837.25;;;16.92;47.97
20368;BME280;10343;52.402;9.796;2023-03-26T00:34:21;99846.63;;;17.13;47.68
20368;BME280;10343;52.402;9.796;2023-03-26T00:36:50;99851.09;;;17.13;47.83
20368;BME280;10343;52.402;9.796;2023-03-26T00:39:20;99852.66;;;17.44;47.64
20368;BME280;10343;52.402;9.796;2023-03-26T00:41:49;99850.00;;;17.99;46.68
20368;BME280;10343;52.402;9.796;2023-03-26T00:44:20;99856.91;;;17.20;48.52
20368;BME280;10343;52.402;9.796;2023-03-26T00:46:49;99853.13;;;16.95;49.48
20368;BME280;10343;52.402;9.796;2023-03-26T00:49:17;99849.03;;;16.44;49.42
20368;BME280;10343;52.402;9.796;2023-03-26T00:51:45;99857.31;;;16.85;49.23
20368;BME280;10343;52.402;9.796;2023-03-26T00:54:13;99863.31;;;17.59;47.54
20368;BME280;10343;52.402;9.796;2023-03-26T00:56:41;99865.31;;;16.70;49.33
20368;BME280;10343;52.402;9.796;2023-03-26T00:59:09;99861.88;;;17.26;47.61
20368;BME280;10343;52.402;9.796;2023-03-26T01:01:37;99862.59;;;17.01;49.30
20368;BME280;10343;52.402;9.796;2023-03-26T01:04:25;99870.16;;;17.08;48.93
20368;BME280;10343;52.402;9.796;2023-03-26T01:06:58;99872.78;;;17.37;48.29
20368;BME280;10343;52.402;9.796;2023-03-26T01:09:32;99870.50;;;17.58;47.95
20368;BME280;10343;52.402;9.796;2023-03-26T01:12:02;99874.06;;;18.13;46.66
20368;BME280;10343;52.402;9.796;2023-03-26T01:14:32;99876.09;;;17.82;47.52
20368;BME280;10343;52.402;9.796;2023-03-26T01:17:01;99873.19;;;16.88;50.43
20368;BME280;10343;52.402;9.796;2023-03-26T01:19:36;99872.72;;;17.52;48.76
20368;BME280;10343;52.402;9.796;2023-03-26T01:22:08;99870.16;;;17.08;49.39
20368;BME280;10343;52.402;9.796;2023-03-26T01:24:39;99874.09;;;17.30;48.84
20368;BME280;10343;52.402;9.796;2023-03-26T01:27:15;99872.63;;;17.80;47.04
20368;BME280;10343;52.402;9.796;2023-03-26T01:29:51;99870.38;;;18.02;46.24
20368;BME280;10343;52.402;9.796;2023-03-26T01:32:38;99872.88;;;18.17;45.70
20368;BME280;10343;52.402;9.796;2023-03-26T01:35:19;99868.78;;;17.85;46.33
20368;BME280;10343;52.402;9.796;2023-03-26T01:37:57;99863.84;;;17.78;46.28
20368;BME280;10343;52.402;9.796;2023-03-26T01:40:40;99872.53;;;17.96;46.01
20368;BME280;10343;52.402;9.796;2023-03-26T01:43:12;99876.19;;;17.39;47.10
20368;BME280;10343;52.402;9.796;2023-03-26T01:45:46;99868.78;;;17.15;47.01
20368;BME280;10343;52.402;9.796;2023-03-26T01:48:16;99873.88;;;17.62;45.83
20368;BME280;10343;52.402;9.796;2023-03-26T01:50:44;99873.16;;;17.45;46.62
20368;BME280;10343;52.402;9.796;2023-03-26T01:53:14;99863.53;;;18.10;44.65
20368;BME280;10343;52.402;9.796;2023-03-26T01:55:51;99866.19;;;17.70;45.15
20368;BME280;10343;52.402;9.796;2023-03-26T01:58:28;99881.06;;;17.47;45.07
20368;BME280;10343;52.402;9.796;2023-03-26T02:01:05;99868.78;;;17.85;44.88
20368;BME280;10343;52.402;9.796;2023-03-26T02:03:42;99871.41;;;17.44;45.20
20368;BME280;10343;52.402;9.796;2023-03-26T02:06:15;99864.94;;;17.89;44.17
20368;BME280;10343;52.402;9.796;2023-03-26T02:08:51;99868.00;;;17.97;43.59
20368;BME280;10343;52.402;9.796;2023-03-26T02:11:21;99863.75;;;17.53;44.78
20368;BME280;10343;52.402;9.796;2023-03-26T02:14:02;99864.53;;;17.40;44.94
20368;BME280;10343;52.402;9.796;2023-03-26T02:16:31;99856.28;;;17.58;44.98
20368;BME280;10343;52.402;9.796;2023-03-26T02:18:59;99862.38;;;17.04;45.45
20368;BME280;10343;52.402;9.796;2023-03-26T02:21:29;99866.31;;;17.12;45.03
20368;BME280;10343;52.402;9.796;2023-03-26T02:24:00;99859.31;;;17.66;44.21
20368;BME280;10343;52.402;9.796;2023-03-26T02:26:36;99856.84;;;17.48;44.72
20368;BME280;10343;52.402;9.796;2023-03-26T02:29:07;99861.31;;;17.21;44.73
20368;BME280;10343;52.402;9.796;2023-03-26T02:31:37;99862.69;;;17.13;44.95
20368;BME280;10343;52.402;9.796;2023-03-26T02:34:05;99867.16;;;17.13;45.27
20368;BME280;10343;52.402;9.796;2023-03-26T02:36:36;99856.06;;;17.61;44.08
20368;BME280;10343;52.402;9.796;2023-03-26T02:39:05;99859.69;;;17.60;43.94
20368;BME280;10343;52.402;9.796;2023-03-26T02:41:37;99862.34;;;17.32;44.53
20368;BME280;10343;52.402;9.796;2023-03-26T02:44:08;99858.69;;;17.48;44.51
20368;BME280;10343;52.402;9.796;2023-03-26T02:47:14;99861.59;;;18.12;42.90
20368;BME280;10343;52.402;9.796;2023-03-26T02:49:51;99868.88;;;17.56;43.98
20368;BME280;10343;52.402;9.796;2023-03-26T02:52:38;99860.22;;;17.38;44.64
20368;BME280;10343;52.402;9.796;2023-03-26T02:55:06;99864.66;;;17.66;44.59
20368;BME280;10343;52.402;9.796;2023-03-26T02:57:37;99866.63;;;17.49;43.99
20368;BME280;10343;52.402;9.796;2023-03-26T03:00:17;99863.13;;;17.20;44.87
20368;BME280;10343;52.402;9.796;2023-03-26T03:02:53;99859.91;;;17.42;44.62
20368;BME280;10343;52.402;9.796;2023-03-26T03:05:30;99853.38;;;17.88;44.15
20368;BME280;10343;52.402;9.796;2023-03-26T03:08:15;99848.84;;;17.89;43.95
20368;BME280;10343;52.402;9.796;2023-03-26T03:11:18;99859.91;;;17.42;45.06
20368;BME280;10343;52.402;9.796;2023-03-26T03:13:51;99854.66;;;17.13;45.40
20368;BME280;10343;52.402;9.796;2023-03-26T03:16:25;99843.72;;;17.86;43.97
20368;BME280;10343;52.402;9.796;2023-03-26T03:18:54;99842.88;;;17.02;45.46
20368;BME280;10343;52.402;9.796;2023-03-26T03:21:35;99834.75;;;17.45;44.89
20368;BME280;10343;52.402;9.796;2023-03-26T03:24:04;99829.81;;;17.39;44.51
20368;BME280;10343;52.402;9.796;2023-03-26T03:26:36;99820.97;;;17.78;43.13
20368;BME280;10343;52.402;9.796;2023-03-26T03:29:17;99819.09;;;17.39;42.56
20368;BME280;10343;52.402;9.796;2023-03-26T03:31:45;99809.69;;;17.86;41.89
20368;BME280;10343;52.402;9.796;2023-03-26T03:34:36;99829.72;;;17.40;42.23
20368;BME280;10343;52.402;9.796;2023-03-26T03:37:05;99826.31;;;17.24;41.87
20368;BME280;10343;52.402;9.796;2023-03-26T03:39:48;99832.16;;;17.58;41.39
20368;BME280;10343;52.402;9.796;2023-03-26T03:42:18;99822.97;;;17.47;41.54
20368;BME280;10343;52.402;9.796;2023-03-26T03:44:50;99828.75;;;17.41;41.57
20368;BME280;10343;52.402;9.796;2023-03-26T03:47:38;99828.75;;;17.41;41.65
20368;BME280;10343;52.402;9.796;2023-03-26T03:50:08;99817.34;;;16.38;43.22
20368;BME280;10343;52.402;9.796;2023-03-26T03:52:44;99825.56;;;16.78;43.14
20368;BME280;10343;52.402;9.796;2023-03-26T03:55:15;99824.41;;;17.11;42.78
20368;BME280;10343;52.402;9.796;2023-03-26T03:57:50;99825.53;;;17.22;42.65
20368;BME280;10343;52.402;9.796;2023-03-26T04:00:23;99824.56;;;17.23;43.01
20368;BME280;10343;52.402;9.796;2023-03-26T04:03:11;99830.19;;;16.91;43.81
20368;BME280;10343;52.402;9.796;2023-03-26T04:05:41;99827.41;;;17.34;43.29
20368;BME280;10343;52.402;9.796;2023-03-26T04:08:15;99833.00;;;16.73;44.67
20368;BME280;10343;52.402;9.796;2023-03-26T04:10:47;99830.63;;;17.12;44.26
20368;BME280;10343;52.402;9.796;2023-03-26T04:13:38;99835.91;;;16.99;44.86
20368;BME280;10343;52.402;9.796;2023-03-26T04:16:31;99841.06;;;16.88;45.28
20368;BME280;10343;52.402;9.796;2023-03-26T04:18:59;99832.97;;;17.31;44.38
20368;BME280;10343;52.402;9.796;2023-03-26T04:21:30;99838.22;;;17.05;45.47
20368;BME280;10343;52.402;9.796;2023-03-26T04:23:58;99831.53;;;17.40;44.50
20368;BME280;10343;52.402;9.796;2023-03-26T04:26:47;99831.38;;;17.56;44.30
20368;BME280;10343;52.402;9.796;2023-03-26T04:29:20;99850.03;;;17.15;45.21
20368;BME280;10343;52.402;9.796;2023-03-26T04:31:54;99843.81;;;17.57;44.30
20368;BME280;10343;52.402;9.796;2023-03-26T04:34:25;99837.44;;;17.45;44.27
20368;BME280;10343;52.402;9.796;2023-03-26T04:37:24;99837.34;;;18.01;43.54
20368;BME280;10343;52.402;9.796;2023-03-26T04:40:06;99832.28;;;17.69;43.73
20368;BME280;10343;52.402;9.796;2023-03-26T04:42:38;99831.03;;;17.88;43.45
20368;BME280;10343;52.402;9.796;2023-03-26T04:45:16;99837.78;;;17.53;44.17
20368;BME280;10343;52.402;9.796;2023-03-26T04:47:56;99832.97;;;17.86;43.57
20368;BME280;10343;52.402;9.796;2023-03-26T04:50:24;99835.53;;;17.74;43.41
20368;BME280;10343;52.402;9.796;2023-03-26T04:52:54;99833.78;;;17.19;44.60
20368;BME280;10343;52.402;9.796;2023-03-26T04:56:07;99824.72;;;17.34;43.73
20368;BME280;10343;52.402;9.796;2023-03-26T04:58:59;99827.72;;;18.11;42.14
20368;BME280;10343;52.402;9.796;2023-03-26T05:01:31;99820.50;;;17.99;41.53
20368;BME280;10343;52.402;9.796;2023-03-26T05:04:05;99818.38;;;17.77;41.93
20368;BME280;10343;52.402;9.796;2023-03-26T05:06:35;99810.22;;;18.19;41.78
20368;BME280;10343;52.402;9.796;2023-03-26T05:09:10;99815.66;;;17.64;42.57
20368;BME280;10343;52.402;9.796;2023-03-26T05:11:59;99814.66;;;17.52;42.89
20368;BME280;10343;52.402;9.796;2023-03-26T05:14:34;99817.63;;;17.47;43.20
20368;BME280;10343;52.402;9.796;2023-03-26T05:17:05;99811.97;;;18.20;41.78
20368;BME280;10343;52.402;9.796;2023-03-26T05:19:38;99808.22;;;18.35;41.68
20368;BME280;10343;52.402;9.796;2023-03-26T05:22:07;99805.63;;;17.80;42.59
20368;BME280;10343;52.402;9.796;2023-03-26T05:24:41;99809.91;;;18.62;41.49
20368;BME280;10343;52.402;9.796;2023-03-26T05:27:13;99805.16;;;18.01;42.22
20368;BME280;10343;52.402;9.796;2023-03-26T05:29:42;99808.16;;;18.09;42.26
20368;BME280;10343;52.402;9.796;2023-03-26T05:32:10;99813.00;;;18.43;41.53
20368;BME280;10343;52.402;9.796;2023-03-26T05:34:40;99819.84;;;17.95;42.41
20368;BME280;10343;52.402;9.796;2023-03-26T05:37:08;99813.53;;;17.69;43.45
20368;BME280;10343;52.402;9.796;2023-03-26T05:39:45;99812.00;;;17.92;42.85
20368;BME280;10343;52.402;9.796;2023-03-26T05:42:33;99808.91;;;17.71;43.13
20368;BME280;10343;52.402;9.796;2023-03-26T05:45:21;99808.28;;;17.68;43.44
20368;BME280;10343;52.402;9.796;2023-03-26T05:47:50;99811.50;;;18.13;42.89
20368;BME280;10343;52.402;9.796;2023-03-26T05:50:24;99817.69;;;17.60;43.85
20368;BME280;10343;52.402;9.796;2023-03-26T05:52:57;99825.75;;;16.75;45.65
20368;BME280;10343;52.402;9.796;2023-03-26T05:55:44;99812.69;;;18.22;42.78
20368;BME280;10343;52.402;9.796;2023-03-26T05:58:35;99802.63;;;18.64;42.21
20368;BME280;10343;52.402;9.796;2023-03-26T06:01:21;99805.59;;;18.59;42.37
20368;BME280;10343;52.402;9.796;2023-03-26T06:04:14;99809.44;;;17.63;43.95
20368;BME280;10343;52.402;9.796;2023-03-26T06:07:04;99799.16;;;18.10;43.54
20368;BME280;10343;52.402;9.796;2023-03-26T06:09:36;99791.09;;;17.97;43.53
20368;BME280;10343;52.402;9.796;2023-03-26T06:12:04;99800.69;;;18.53;42.26
20368;BME280;10343;52.402;9.796;2023-03-26T06:14:33;99798.09;;;18.39;42.58
20368;BME280;10343;52.402;9.796;2023-03-26T06:17:31;99794.47;;;17.46;44.94
20368;BME280;10343;52.402;9.796;2023-03-26T06:20:10;99799.00;;;17.59;43.97
20368;BME280;10343;52.402;9.796;2023-03-26T06:22:43;99783.44;;;18.81;42.00
20368;BME280;10343;52.402;9.796;2023-03-26T06:25:27;99799.56;;;16.95;44.59
20368;BME280;10343;52.402;9.796;2023-03-26T06:28:08;99795.06;;;18.69;42.01
20368;BME280;10343;52.402;9.796;2023-03-26T06:30:58;99787.78;;;18.97;41.66
20368;BME280;10343;52.402;9.796;2023-03-26T06:33:35;99786.03;;;18.96;41.83
20368;BME280;10343;52.402;9.796;2023-03-26T06:36:04;99783.59;;;19.17;40.93
20368;BME280;10343;52.402;9.796;2023-03-26T06:38:34;99785.59;;;19.02;40.82
20368;BME280;10343;52.402;9.796;2023-03-26T06:41:05;99777.28;;;19.42;40.39
20368;BME280;10343;52.402;9.796;2023-03-26T06:43:39;99769.31;;;18.66;41.64
20368;BME280;10343;52.402;9.796;2023-03-26T06:46:07;99774.00;;;19.50;40.39
20368;BME280;10343;52.402;9.796;2023-03-26T06:48:54;99769.84;;;19.22;40.95
20368;BME280;10343;52.402;9.796;2023-03-26T06:51:52;99782.00;;;18.64;41.48
20368;BME280;10343;52.402;9.796;2023-03-26T06:54:40;99773.69;;;19.55;40.23
20368;BME280;10343;52.402;9.796;2023-03-26T06:57:28;99781.38;;;19.35;40.17
20368;BME280;10343;52.402;9.796;2023-03-26T07:00:25;99777.66;;;19.97;39.17
20368;BME280;10343;52.402;9.796;2023-03-26T07:03:11;99772.59;;;19.81;39.41
20368;BME280;10343;52.402;9.796;2023-03-26T07:05:58;99776.47;;;19.29;39.96
20368;BME280;10343;52.402;9.796;2023-03-26T07:08:44;99770.66;;;19.59;39.51
20368;BME280;10343;52.402;9.796;2023-03-26T07:11:36;99768.19;;;19.92;39.02
20368;BME280;10343;52.402;9.796;2023-03-26T07:14:42;99776.00;;;18.35;41.89
20368;BME280;10343;52.402;9.796;2023-03-26T07:17:30;99778.47;;;17.72;43.23
20368;BME280;10343;52.402;9.796;2023-03-26T07:20:19;99769.16;;;18.94;41.57
20368;BME280;10343;52.402;9.796;2023-03-26T07:22:48;99760.81;;;18.98;40.12
20368;BME280;10343;52.402;9.796;2023-03-26T07:25:39;99764.50;;;18.33;41.90
20368;BME280;10343;52.402;9.796;2023-03-26T07:28:33;99751.44;;;19.04;40.83
20368;BME280;10343;52.402;9.796;2023-03-26T07:31:34;99751.63;;;20.20;38.48
20368;BME280;10343;52.402;9.796;2023-03-26T07:34:39;99752.78;;;19.82;39.03
20368;BME280;10343;52.402;9.796;2023-03-26T07:37:32;99745.13;;;19.65;39.00
20368;BME280;10343;52.402;9.796;2023-03-26T07:40:41;99740.59;;;19.65;39.09
20368;BME280;10343;52.402;9.796;2023-03-26T07:43:44;99752.81;;;18.08;42.14
20368;BME280;10343;52.402;9.796;2023-03-26T07:46:32;99741.81;;;19.97;38.86
20368;BME280;10343;52.402;9.796;2023-03-26T07:49:21;99740.50;;;18.94;39.97
20368;BME280;10343;52.402;9.796;2023-03-26T07:52:09;99732.16;;;19.10;39.82
20368;BME280;10343;52.402;9.796;2023-03-26T07:54:56;99720.09;;;19.40;39.05
20368;BME280;10343;52.402;9.796;2023-03-26T07:57:40;99732.38;;;19.80;38.51
20368;BME280;10343;52.402;9.796;2023-03-26T08:00:40;99725.97;;;20.39;37.15
20368;BME280;10343;52.402;9.796;2023-03-26T08:03:21;99731.09;;;20.53;36.95
20368;BME280;10343;52.402;9.796;2023-03-26T08:05:58;99727.38;;;21.11;35.83
20368;BME280;10343;52.402;9.796;2023-03-26T08:08:57;99730.88;;;20.79;36.67
20368;BME280;10343;52.402;9.796;2023-03-26T08:12:02;99716.28;;;20.93;35.86
20368;BME280;10343;52.402;9.796;2023-03-26T08:14:43;99720.81;;;20.25;36.68
20368;BME280;10343;52.402;9.796;2023-03-26T08:17:17;99721.78;;;20.58;36.54
20368;BME280;10343;52.402;9.796;2023-03-26T08:19:59;99719.97;;;19.77;37.78
20368;BME280;10343;52.402;9.796;2023-03-26T08:22:38;99723.75;;;20.10;37.05
20368;BME280;10343;52.402;9.796;2023-03-26T08:25:24;99720.97;;;20.34;36.69
20368;BME280;10343;52.402;9.796;2023-03-26T08:28:04;99726.94;;;20.38;36.60
20368;BME280;10343;52.402;9.796;2023-03-26T08:30:37;99724.22;;;19.33;39.02
20368;BME280;10343;52.402;9.796;2023-03-26T08:33:12;99731.94;;;20.99;36.21
20368;BME280;10343;52.402;9.796;2023-03-26T08:35:43;99734.03;;;20.62;36.80
20368;BME280;10343;52.402;9.796;2023-03-26T08:38:13;99726.22;;;20.81;36.12
20368;BME280;10343;52.402;9.796;2023-03-26T08:43:54;99728.78;;;20.49;35.10
20368;BME280;10343;52.402;9.796;2023-03-26T08:50:11;99727.03;;;19.07;37.19
20368;BME280;10343;52.402;9.796;2023-03-26T08:56:17;99722.53;;;21.26;34.14
20368;BME280;10343;52.402;9.796;2023-03-26T08:59:13;99718.63;;;20.52;35.09
20368;BME280;10343;52.402;9.796;2023-03-26T09:02:03;99725.47;;;19.40;36.33
20368;BME280;10343;52.402;9.796;2023-03-26T09:08:23;99714.97;;;20.31;34.83
20368;BME280;10343;52.402;9.796;2023-03-26T09:11:31;99722.66;;;19.77;35.15
20368;BME280;10343;52.402;9.796;2023-03-26T09:17:44;99711.34;;;22.27;32.04
20368;BME280;10343;52.402;9.796;2023-03-26T09:23:48;99706.56;;;22.09;32.75
20368;BME280;10343;52.402;9.796;2023-03-26T09:26:24;99706.91;;;22.37;32.54
20368;BME280;10343;52.402;9.796;2023-03-26T09:29:31;99713.06;;;19.86;35.85
20368;BME280;10343;52.402;9.796;2023-03-26T09:32:31;99718.25;;;20.23;35.86
20368;BME280;10343;52.402;9.796;2023-03-26T09:38:24;99710.19;;;19.76;37.13
20368;BME280;10343;52.402;9.796;2023-03-26T09:41:05;99705.66;;;20.80;35.85
20368;BME280;10343;52.402;9.796;2023-03-26T09:43:46;99712.16;;;18.77;38.59
20368;BME280;10343;52.402;9.796;2023-03-26T09:46:28;99713.88;;;19.75;37.34
20368;BME280;10343;52.402;9.796;2023-03-26T09:52:01;99710.78;;;20.83;35.38
20368;BME280;10343;52.402;9.796;2023-03-26T09:55:01;99717.59;;;20.99;34.95
20368;BME280;10343;52.402;9.796;2023-03-26T09:57:54;99702.00;;;21.58;34.19
20368;BME280;10343;52.402;9.796;2023-03-26T10:00:30;99700.84;;;20.84;35.19
20368;BME280;10343;52.402;9.796;2023-03-26T10:03:17;99707.00;;;18.74;38.55
20368;BME280;10343;52.402;9.796;2023-03-26T10:09:12;99693.44;;;20.31;37.07
20368;BME280;10343;52.402;9.796;2023-03-26T10:11:57;99695.13;;;19.27;38.70
20368;BME280;10343;52.402;9.796;2023-03-26T10:14:34;99698.97;;;19.71;38.51
20368;BME280;10343;52.402;9.796;2023-03-26T10:17:15;99704.34;;;18.11;41.67
20368;BME280;10343;52.402;9.796;2023-03-26T10:19:58;99705.28;;;18.10;41.88
20368;BME280;10343;52.402;9.796;2023-03-26T10:22:44;99696.44;;;18.47;41.07
20368;BME280;10343;52.402;9.796;2023-03-26T10:25:23;99695.59;;;18.46;40.77
20368;BME280;10343;52.402;9.796;2023-03-26T10:28:08;99684.38;;;20.09;38.51
20368;BME280;10343;52.402;9.796;2023-03-26T10:30:55;99690.88;;;18.87;39.42
20368;BME280;10343;52.402;9.796;2023-03-26T10:33:38;99699.81;;;18.25;40.86
20368;BME280;10343;52.402;9.796;2023-03-26T10:36:26;99685.53;;;17.86;41.21
20368;BME280;10343;52.402;9.796;2023-03-26T10:39:11;99684.50;;;19.61;37.91
20368;BME280;10343;52.402;9.796;2023-03-26T10:42:12;99689.28;;;19.33;38.76
20368;BME280;10343;52.402;9.796;2023-03-26T10:44:58;99690.72;;;20.65;36.23
20368;BME280;10343;52.402;9.796;2023-03-26T10:47:58;99678.22;;;21.94;33.76
20368;BME280;10343;52.402;9.796;2023-03-26T10:50:41;99678.72;;;20.80;35.30
20368;BME280;10343;52.402;9.796;2023-03-26T10:53:29;99669.16;;;21.52;34.67
20368;BME280;10343;52.402;9.796;2023-03-26T10:56:04;99680.44;;;20.59;35.01
20368;BME280;10343;52.402;9.796;2023-03-26T10:58:36;99677.16;;;20.32;35.96
20368;BME280;10343;52.402;9.796;2023-03-26T11:01:22;99677.66;;;20.38;35.90
20368;BME280;10343;52.402;9.796;2023-03-26T11:04:00;99674.06;;;19.80;36.59
20368;BME280;10343;52.402;9.796;2023-03-26T11:06:38;99663.72;;;21.10;35.31
20368;BME280;10343;52.402;9.796;2023-03-26T11:09:21;99659.25;;;21.53;34.49
20368;BME280;10343;52.402;9.796;2023-03-26T11:11:56;99659.53;;;22.02;33.78
20368;BME280;10343;52.402;9.796;2023-03-26T11:14:28;99656.47;;;22.16;33.05
20368;BME280;10343;52.402;9.796;2023-03-26T11:17:07;99660.47;;;21.70;33.29
20368;BME280;10343;52.402;9.796;2023-03-26T11:20:04;99655.56;;;21.75;33.39
20368;BME280;10343;52.402;9.796;2023-03-26T11:22:41;99657.59;;;21.29;34.10
20368;BME280;10343;52.402;9.796;2023-03-26T11:25:34;99654.44;;;22.09;33.45
20368;BME280;10343;52.402;9.796;2023-03-26T11:28:15;99654.53;;;22.69;32.40
20368;BME280;10343;52.402;9.796;2023-03-26T11:30:53;99648.44;;;22.86;32.30
20368;BME280;10343;52.402;9.796;2023-03-26T11:33:28;99650.38;;;23.35;31.52
20368;BME280;10343;52.402;9.796;2023-03-26T11:36:02;99650.16;;;22.06;33.12
20368;BME280;10343;52.402;9.796;2023-03-26T11:38:37;99659.94;;;21.23;33.65
20368;BME280;10343;52.402;9.796;2023-03-26T11:41:14;99659.19;;;20.10;35.79
20368;BME280;10343;52.402;9.796;2023-03-26T11:44:04;99666.34;;;19.40;36.85
20368;BME280;10343;52.402;9.796;2023-03-26T11:46:38;99655.47;;;20.79;34.90
20368;BME280;10343;52.402;9.796;2023-03-26T11:49:13;99648.19;;;22.08;32.91
20368;BME280;10343;52.402;9.796;2023-03-26T11:51:46;99644.97;;;21.83;32.49
20368;BME280;10343;52.402;9.796;2023-03-26T11:54:16;99651.16;;;22.05;32.26
20368;BME280;10343;52.402;9.796;2023-03-26T11:56:47;99640.81;;;23.50;30.68
20368;BME280;10343;52.402;9.796;2023-03-26T11:59:36;99639.19;;;24.52;28.98
20368;BME280;10343;52.402;9.796;2023-03-26T12:02:24;99637.38;;;23.09;31.04
20368;BME280;10343;52.402;9.796;2023-03-26T12:05:10;99636.22;;;23.61;30.12
20368;BME280;10343;52.402;9.796;2023-03-26T12:07:46;99636.78;;;23.64;30.11
20368;BME280;10343;52.402;9.796;2023-03-26T12:10:21;99634.00;;;23.36;30.49
20368;BME280;10343;52.402;9.796;2023-03-26T12:12:53;99628.66;;;23.74;30.13
20368;BME280;10343;52.402;9.796;2023-03-26T12:15:23;99630.41;;;23.06;30.37
20368;BME280;10343;52.402;9.796;2023-03-26T12:17:53;99631.16;;;23.28;30.57
20368;BME280;10343;52.402;9.796;2023-03-26T12:20:34;99631.66;;;22.73;30.57
20368;BME280;10343;52.402;9.796;2023-03-26T12:23:05;99623.00;;;23.57;29.49
20368;BME280;10343;52.402;9.796;2023-03-26T12:25:35;99626.13;;;21.72;31.42
20368;BME280;10343;52.402;9.796;2023-03-26T12:28:15;99634.09;;;20.99;33.22
20368;BME280;10343;52.402;9.796;2023-03-26T12:30:51;99627.09;;;21.61;32.51
20368;BME280;10343;52.402;9.796;2023-03-26T12:33:23;99624.75;;;21.57;32.66
20368;BME280;10343;52.402;9.796;2023-03-26T12:35:53;99638.56;;;20.66;33.89
20368;BME280;10343;52.402;9.796;2023-03-26T12:38:29;99627.09;;;19.73;35.85
20368;BME280;10343;52.402;9.796;2023-03-26T12:41:04;99637.34;;;19.68;36.37
20368;BME280;10343;52.402;9.796;2023-03-26T12:43:38;99629.53;;;19.76;35.84
20368;BME280;10343;52.402;9.796;2023-03-26T12:46:29;99635.16;;;20.64;34.25
20368;BME280;10343;52.402;9.796;2023-03-26T12:49:19;99624.84;;;20.80;34.10
20368;BME280;10343;52.402;9.796;2023-03-26T12:51:49;99630.56;;;20.32;35.10
20368;BME280;10343;52.402;9.796;2023-03-26T12:54:30;99635.81;;;20.11;35.58
20368;BME280;10343;52.402;9.796;2023-03-26T12:57:14;99633.13;;;21.21;34.39
20368;BME280;10343;52.402;9.796;2023-03-26T12:59:55;99629.50;;;19.18;37.34
20368;BME280;10343;52.402;9.796;2023-03-26T13:02:43;99631.69;;;19.60;36.80
20368;BME280;10343;52.402;9.796;2023-03-26T13:05:27;99627.31;;;19.59;36.66
20368;BME280;10343;52.402;9.796;2023-03-26T13:08:12;99631.78;;;20.16;35.86
20368;BME280;10343;52.402;9.796;2023-03-26T13:10:53;99630.03;;;19.70;37.12
20368;BME280;10343;52.402;9.796;2023-03-26T13:13:49;99630.28;;;18.96;38.19
20368;BME280;10343;52.402;9.796;2023-03-26T13:16:28;99620.97;;;19.71;37.24
20368;BME280;10343;52.402;9.796;2023-03-26T13:19:02;99627.44;;;19.68;37.08
20368;BME280;10343;52.402;9.796;2023-03-26T13:21:40;99625.88;;;20.68;35.50
20368;BME280;10343;52.402;9.796;2023-03-26T13:24:17;99627.09;;;19.73;36.86
20368;BME280;10343;52.402;9.796;2023-03-26T13:26:58;99628.44;;;19.21;37.92
20368;BME280;10343;52.402;9.796;2023-03-26T13:29:35;99622.88;;;18.62;38.93
20368;BME280;10343;52.402;9.796;2023-03-26T13:32:11;99621.28;;;18.23;39.43
20368;BME280;10343;52.402;9.796;2023-03-26T13:34:58;99629.22;;;17.86;39.96
20368;BME280;10343;52.402;9.796;2023-03-26T13:37:36;99618.19;;;18.53;39.29
20368;BME280;10343;52.402;9.796;2023-03-26T13:40:20;99612.50;;;18.82;38.56
20368;BME280;10343;52.402;9.796;2023-03-26T13:45:58;99614.41;;;18.80;38.85
20368;BME280;10343;52.402;9.796;2023-03-26T13:48:31;99620.66;;;19.40;37.96
20368;BME280;10343;52.402;9.796;2023-03-26T13:51:04;99627.25;;;18.26;39.66
20368;BME280;10343;52.402;9.796;2023-03-26T13:53:40;99621.28;;;17.45;40.93
20368;BME280;10343;52.402;9.796;2023-03-26T13:56:13;99609.00;;;18.44;39.41
20368;BME280;10343;52.402;9.796;2023-03-26T13:58:46;99611.22;;;19.23;38.42
20368;BME280;10343;52.402;9.796;2023-03-26T14:01:19;99613.28;;;19.20;38.25
20368;BME280;10343;52.402;9.796;2023-03-26T14:03:53;99628.81;;;19.27;38.01
20368;BME280;10343;52.402;9.796;2023-03-26T14:06:32;99623.75;;;19.47;37.07
20368;BME280;10343;52.402;9.796;2023-03-26T14:09:04;99622.06;;;18.73;38.81
20368;BME280;10343;52.402;9.796;2023-03-26T14:11:46;99628.56;;;17.82;39.96
20368;BME280;10343;52.402;9.796;2023-03-26T14:14:23;99622.94;;;19.22;37.85
20368;BME280;10343;52.402;9.796;2023-03-26T14:16:55;99617.41;;;19.71;37.22
20368;BME280;10343;52.402;9.796;2023-03-26T14:19:50;99625.22;;;19.15;38.09
20368;BME280;10343;52.402;9.796;2023-03-26T14:22:28;99633.13;;;18.07;39.83
20368;BME280;10343;52.402;9.796;2023-03-26T14:25:10;99616.59;;;18.75;38.88
20368;BME280;10343;52.402;9.796;2023-03-26T14:27:56;99622.25;;;19.07;38.16
20368;BME280;10343;52.402;9.796;2023-03-26T14:30:47;99630.03;;;18.38;39.45
20368;BME280;10343;52.402;9.796;2023-03-26T14:33:40;99629.22;;;17.86;40.05
20368;BME280;10343;52.402;9.796;2023-03-26T14:36:23;99633.28;;;17.00;41.53